createdAt,value
2017-10-18T00:00:27.234Z,65.85
2017-10-18T00:01:07.680Z,65.85
2017-10-18T00:01:48.132Z,65.95
2017-10-18T00:02:28.577Z,65.47
2017-10-18T00:03:09.027Z,66.14
2017-10-18T00:03:49.484Z,66.05
2017-10-18T00:04:29.951Z,66.05
2017-10-18T00:05:10.403Z,66.14
2017-10-18T00:05:50.863Z,65.95
2017-10-18T00:06:31.312Z,66.05
2017-10-18T00:07:11.769Z,66.05
2017-10-18T00:07:52.218Z,66.14
2017-10-18T00:08:32.674Z,66.33
2017-10-18T00:09:13.138Z,65.85
2017-10-18T00:09:53.595Z,65.85
2017-10-18T00:10:34.059Z,65.95
2017-10-18T00:11:14.512Z,65.85
2017-10-18T00:11:54.962Z,66.05
2017-10-18T00:12:35.422Z,65.95
2017-10-18T00:13:15.857Z,65.75
2017-10-18T00:13:56.304Z,65.66
2017-10-18T00:14:36.761Z,65.66
2017-10-18T00:15:17.216Z,66.05
2017-10-18T00:15:57.683Z,65.75
2017-10-18T00:16:38.135Z,65.66
2017-10-18T00:17:18.584Z,65.85
2017-10-18T00:17:59.041Z,65.85
2017-10-18T00:18:39.496Z,65.75
2017-10-18T00:19:19.949Z,65.95
2017-10-18T00:20:00.408Z,65.66
2017-10-18T00:20:40.875Z,65.85
2017-10-18T00:21:21.342Z,65.95
2017-10-18T00:22:01.795Z,65.95
2017-10-18T00:22:42.259Z,66.14
2017-10-18T00:23:22.713Z,65.95
2017-10-18T00:24:03.177Z,65.91
2017-10-18T00:24:43.627Z,66.05
2017-10-18T00:25:24.075Z,66.05
2017-10-18T00:26:04.537Z,65.95
2017-10-18T00:26:45.000Z,65.75
2017-10-18T00:27:25.465Z,66.05
2017-10-18T00:28:05.923Z,65.95
2017-10-18T00:28:46.387Z,66.43
2017-10-18T00:29:26.835Z,66.63
2017-10-18T00:30:07.286Z,66.24
2017-10-18T00:30:47.732Z,66.43
2017-10-18T00:31:28.195Z,66.63
2017-10-18T00:32:08.641Z,66.3
2017-10-18T00:32:49.099Z,66.24
2017-10-18T00:33:29.557Z,66.43
2017-10-18T00:34:10.007Z,66.53
2017-10-18T00:34:50.473Z,66.53
2017-10-18T00:35:30.923Z,66.24
2017-10-18T00:36:11.370Z,66.24
2017-10-18T00:36:51.827Z,66.33
2017-10-18T00:37:32.276Z,66.24
2017-10-18T00:38:12.739Z,66.24
2017-10-18T00:38:53.183Z,66.24
2017-10-18T00:39:33.638Z,66.3
2017-10-18T00:40:14.086Z,66.33
2017-10-18T00:40:54.550Z,66.24
2017-10-18T00:41:35.005Z,66.33
2017-10-18T00:42:15.461Z,66.14
2017-10-18T00:42:55.910Z,66.72
2017-10-18T00:43:36.360Z,66.72
2017-10-18T00:44:16.812Z,66.53
2017-10-18T00:44:57.274Z,66.49
2017-10-18T00:45:37.724Z,66.53
2017-10-18T00:46:18.177Z,66.63
2017-10-18T00:46:58.623Z,66.3
2017-10-18T00:47:39.079Z,66.43
2017-10-18T00:48:19.531Z,66.63
2017-10-18T00:48:59.992Z,66.33
2017-10-18T00:49:40.463Z,66.33
2017-10-18T00:50:20.910Z,66.63
2017-10-18T00:51:01.361Z,66.91
2017-10-18T00:51:41.818Z,66.97
2017-10-18T00:52:22.290Z,66.59
2017-10-18T00:53:02.750Z,66.91
2017-10-18T00:53:43.208Z,66.78
2017-10-18T00:54:23.669Z,66.69
2017-10-18T00:55:04.118Z,66.91
2017-10-18T00:55:44.586Z,66.88
2017-10-18T00:56:25.029Z,66.88
2017-10-18T00:57:05.481Z,66.78
2017-10-18T00:57:45.943Z,66.78
2017-10-18T00:58:26.405Z,66.78
2017-10-18T00:59:06.861Z,66.88
2017-10-18T00:59:47.314Z,66.82
2017-10-18T01:00:27.767Z,67.01
2017-10-18T01:01:08.226Z,66.78
2017-10-18T01:01:48.685Z,66.78
2017-10-18T01:02:29.132Z,66.91
2017-10-18T01:03:09.594Z,67.01
2017-10-18T01:03:50.051Z,66.69
2017-10-18T01:04:30.526Z,66.69
2017-10-18T01:05:10.974Z,66.69
2017-10-18T01:05:51.439Z,66.88
2017-10-18T01:06:31.889Z,66.59
2017-10-18T01:07:12.343Z,66.59
2017-10-18T01:07:52.804Z,66.69
2017-10-18T01:08:33.261Z,66.69
2017-10-18T01:09:13.724Z,66.69
2017-10-18T01:09:54.179Z,66.69
2017-10-18T01:10:34.637Z,66.59
2017-10-18T01:11:15.098Z,66.59
2017-10-18T01:11:55.548Z,66.59
2017-10-18T01:12:35.997Z,66.78
2017-10-18T01:13:16.463Z,66.59
2017-10-18T01:13:56.924Z,66.69
2017-10-18T01:14:37.388Z,66.69
2017-10-18T01:15:17.842Z,66.88
2017-10-18T01:15:58.297Z,66.69
2017-10-18T01:16:38.754Z,66.49
2017-10-18T01:17:19.210Z,66.78
2017-10-18T01:17:59.668Z,66.72
2017-10-18T01:18:40.147Z,66.72
2017-10-18T01:19:20.592Z,66.53
2017-10-18T01:20:01.040Z,66.72
2017-10-18T01:20:41.490Z,66.88
2017-10-18T01:21:21.937Z,66.69
2017-10-18T01:22:02.402Z,66.88
2017-10-18T01:22:42.851Z,66.72
2017-10-18T01:23:23.303Z,67.17
2017-10-18T01:24:03.778Z,67.11
2017-10-18T01:24:44.242Z,67.2
2017-10-18T01:25:24.698Z,66.78
2017-10-18T01:26:05.149Z,67.2
2017-10-18T01:26:45.605Z,67.36
2017-10-18T01:27:26.070Z,66.88
2017-10-18T01:28:06.512Z,67.36
2017-10-18T01:28:46.973Z,67.17
2017-10-18T01:29:27.430Z,66.97
2017-10-18T01:30:07.887Z,67.17
2017-10-18T01:30:48.339Z,66.97
2017-10-18T01:31:28.791Z,67.17
2017-10-18T01:32:09.248Z,67.27
2017-10-18T01:32:49.706Z,67.17
2017-10-18T01:33:30.164Z,67.27
2017-10-18T01:34:10.612Z,66.97
2017-10-18T01:34:51.059Z,67.3
2017-10-18T01:35:31.505Z,67.36
2017-10-18T01:36:11.960Z,67.36
2017-10-18T01:36:52.404Z,67.27
2017-10-18T01:37:32.868Z,67.17
2017-10-18T01:38:13.337Z,67.07
2017-10-18T01:38:53.788Z,67.07
2017-10-18T01:39:34.245Z,67.07
2017-10-18T01:40:14.699Z,67.17
2017-10-18T01:40:55.146Z,66.97
2017-10-18T01:41:35.593Z,67.07
2017-10-18T01:42:16.051Z,67.07
2017-10-18T01:42:56.503Z,67.07
2017-10-18T01:43:36.953Z,67.07
2017-10-18T01:44:17.410Z,67.27
2017-10-18T01:44:57.869Z,66.97
2017-10-18T01:45:38.324Z,67.07
2017-10-18T01:46:18.776Z,66.97
2017-10-18T01:46:59.228Z,67.07
2017-10-18T01:47:39.684Z,67.07
2017-10-18T01:48:20.138Z,67.07
2017-10-18T01:49:00.594Z,66.97
2017-10-18T01:49:41.048Z,67.17
2017-10-18T01:50:21.510Z,66.97
2017-10-18T01:51:01.975Z,66.88
2017-10-18T01:51:42.434Z,66.97
2017-10-18T01:52:22.882Z,67.17
2017-10-18T01:53:03.339Z,67.17
2017-10-18T01:53:43.797Z,67.07
2017-10-18T01:54:24.240Z,66.97
2017-10-18T01:55:04.702Z,66.97
2017-10-18T01:55:45.152Z,66.97
2017-10-18T01:56:25.610Z,66.88
2017-10-18T01:57:06.066Z,66.78
2017-10-18T01:57:46.517Z,66.97
2017-10-18T01:58:26.971Z,66.97
2017-10-18T01:59:07.423Z,66.97
2017-10-18T01:59:47.885Z,66.88
2017-10-18T02:00:28.335Z,66.97
2017-10-18T02:01:08.786Z,66.69
2017-10-18T02:01:49.242Z,67.07
2017-10-18T02:02:29.708Z,66.78
2017-10-18T02:03:10.168Z,66.78
2017-10-18T02:03:50.623Z,66.88
2017-10-18T02:04:31.089Z,66.69
2017-10-18T02:05:11.534Z,66.78
2017-10-18T02:05:51.996Z,67.07
2017-10-18T02:06:32.454Z,67.07
2017-10-18T02:07:12.915Z,67.07
2017-10-18T02:07:53.373Z,67.07
2017-10-18T02:08:33.822Z,66.97
2017-10-18T02:09:14.263Z,66.97
2017-10-18T02:09:54.704Z,66.97
2017-10-18T02:10:35.162Z,66.97
2017-10-18T02:11:15.616Z,66.97
2017-10-18T02:11:56.071Z,67.07
2017-10-18T02:12:36.522Z,67.17
2017-10-18T02:13:16.974Z,66.97
2017-10-18T02:13:57.425Z,66.78
2017-10-18T02:14:37.893Z,66.97
2017-10-18T02:15:18.348Z,66.97
2017-10-18T02:15:58.807Z,67.27
2017-10-18T02:16:39.269Z,67.27
2017-10-18T02:17:19.730Z,67.27
2017-10-18T02:18:00.181Z,67.07
2017-10-18T02:18:40.635Z,67.27
2017-10-18T02:19:21.099Z,67.17
2017-10-18T02:20:01.577Z,67.17
2017-10-18T02:20:42.029Z,67.17
2017-10-18T02:21:22.491Z,67.27
2017-10-18T02:22:02.939Z,67.07
2017-10-18T02:22:43.394Z,67.07
2017-10-18T02:23:23.846Z,67.36
2017-10-18T02:24:04.308Z,67.27
2017-10-18T02:24:44.762Z,67.36
2017-10-18T02:25:25.222Z,67.36
2017-10-18T02:26:05.685Z,67.27
2017-10-18T02:26:46.143Z,67.46
2017-10-18T02:27:26.597Z,67.36
2017-10-18T02:28:07.051Z,67.36
2017-10-18T02:28:47.497Z,67.46
2017-10-18T02:29:27.959Z,67.36
2017-10-18T02:30:08.416Z,67.65
2017-10-18T02:30:48.882Z,67.36
2017-10-18T02:31:29.327Z,67.46
2017-10-18T02:32:09.785Z,67.36
2017-10-18T02:32:50.240Z,67.36
2017-10-18T02:33:30.695Z,67.46
2017-10-18T02:34:11.150Z,67.27
2017-10-18T02:34:51.596Z,67.36
2017-10-18T02:35:32.056Z,67.36
2017-10-18T02:36:12.517Z,67.65
2017-10-18T02:36:52.983Z,67.36
2017-10-18T02:37:33.432Z,67.75
2017-10-18T02:38:13.909Z,67.75
2017-10-18T02:38:54.337Z,67.65
2017-10-18T02:39:34.793Z,67.65
2017-10-18T02:40:15.245Z,67.55
2017-10-18T02:40:55.708Z,67.75
2017-10-18T02:41:36.171Z,67.65
2017-10-18T02:42:16.634Z,67.36
2017-10-18T02:42:57.085Z,67.65
2017-10-18T02:43:37.538Z,67.36
2017-10-18T02:44:17.992Z,67.65
2017-10-18T02:44:58.439Z,67.65
2017-10-18T02:45:38.895Z,67.36
2017-10-18T02:46:19.351Z,67.36
2017-10-18T02:46:59.807Z,67.36
2017-10-18T02:47:40.255Z,67.36
2017-10-18T02:48:20.714Z,67.65
2017-10-18T02:49:01.168Z,67.36
2017-10-18T02:49:41.626Z,67.36
2017-10-18T02:50:22.088Z,67.55
2017-10-18T02:51:02.544Z,67.36
2017-10-18T02:51:42.993Z,67.55
2017-10-18T02:52:23.451Z,67.27
2017-10-18T02:53:03.921Z,67.55
2017-10-18T02:53:44.388Z,67.55
2017-10-18T02:54:24.840Z,67.55
2017-10-18T02:55:05.306Z,67.36
2017-10-18T02:55:45.746Z,67.36
2017-10-18T02:56:26.191Z,67.36
2017-10-18T02:57:06.656Z,67.36
2017-10-18T02:57:47.094Z,67.46
2017-10-18T02:58:27.543Z,67.65
2017-10-18T02:59:07.984Z,67.46
2017-10-18T02:59:48.459Z,67.55
2017-10-18T03:00:28.916Z,67.75
2017-10-18T03:01:09.373Z,67.55
2017-10-18T03:01:49.839Z,67.65
2017-10-18T03:02:30.296Z,67.55
2017-10-18T03:03:10.742Z,67.27
2017-10-18T03:03:51.193Z,67.36
2017-10-18T03:04:31.668Z,67.36
2017-10-18T03:05:12.127Z,67.27
2017-10-18T03:05:52.574Z,67.46
2017-10-18T03:06:33.028Z,67.27
2017-10-18T03:07:13.480Z,67.27
2017-10-18T03:07:53.937Z,67.27
2017-10-18T03:08:34.399Z,67.55
2017-10-18T03:09:14.857Z,67.27
2017-10-18T03:09:55.312Z,67.46
2017-10-18T03:10:35.762Z,67.46
2017-10-18T03:11:16.227Z,67.46
2017-10-18T03:11:56.674Z,67.85
2017-10-18T03:12:37.129Z,67.75
2017-10-18T03:13:17.590Z,67.94
2017-10-18T03:13:58.035Z,67.94
2017-10-18T03:14:38.497Z,67.85
2017-10-18T03:15:18.964Z,67.55
2017-10-18T03:15:59.410Z,67.94
2017-10-18T03:16:39.855Z,67.94
2017-10-18T03:17:20.317Z,67.85
2017-10-18T03:18:00.777Z,67.85
2017-10-18T03:18:41.227Z,67.85
2017-10-18T03:19:21.682Z,67.94
2017-10-18T03:20:02.134Z,67.94
2017-10-18T03:20:42.592Z,67.85
2017-10-18T03:21:23.052Z,67.94
2017-10-18T03:22:03.502Z,67.85
2017-10-18T03:22:43.956Z,67.94
2017-10-18T03:23:24.421Z,68.04
2017-10-18T03:24:04.865Z,67.46
2017-10-18T03:24:45.312Z,67.85
2017-10-18T03:25:25.768Z,67.65
2017-10-18T03:26:06.225Z,67.36
2017-10-18T03:26:46.670Z,67.36
2017-10-18T03:27:27.118Z,67.46
2017-10-18T03:28:07.576Z,67.46
2017-10-18T03:28:48.027Z,67.46
2017-10-18T03:29:28.483Z,67.75
2017-10-18T03:30:08.949Z,67.36
2017-10-18T03:30:49.402Z,67.36
2017-10-18T03:31:29.854Z,67.36
2017-10-18T03:32:10.305Z,67.46
2017-10-18T03:32:50.760Z,67.36
2017-10-18T03:33:31.210Z,68.04
2017-10-18T03:34:11.662Z,67.36
2017-10-18T03:34:52.121Z,67.65
2017-10-18T03:35:32.572Z,67.46
2017-10-18T03:36:13.029Z,67.46
2017-10-18T03:36:53.493Z,67.46
2017-10-18T03:37:33.940Z,67.27
2017-10-18T03:38:14.412Z,67.27
2017-10-18T03:38:54.888Z,67.46
2017-10-18T03:39:35.353Z,67.36
2017-10-18T03:40:15.782Z,67.65
2017-10-18T03:40:56.240Z,67.55
2017-10-18T03:41:36.685Z,67.46
2017-10-18T03:42:17.139Z,67.55
2017-10-18T03:42:57.611Z,67.59
2017-10-18T03:43:38.074Z,67.59
2017-10-18T03:44:18.538Z,67.65
2017-10-18T03:44:58.990Z,67.55
2017-10-18T03:45:39.452Z,67.46
2017-10-18T03:46:19.928Z,67.46
2017-10-18T03:47:00.383Z,67.59
2017-10-18T03:47:40.840Z,67.49
2017-10-18T03:48:21.292Z,67.59
2017-10-18T03:49:01.734Z,67.3
2017-10-18T03:49:42.196Z,67.3
2017-10-18T03:50:22.650Z,67.4
2017-10-18T03:51:03.111Z,67.3
2017-10-18T03:51:43.556Z,67.4
2017-10-18T03:52:24.013Z,67.3
2017-10-18T03:53:04.471Z,67.59
2017-10-18T03:53:44.943Z,67.36
2017-10-18T03:54:25.388Z,67.36
2017-10-18T03:55:05.844Z,67.36
2017-10-18T03:55:46.300Z,66.97
2017-10-18T03:56:26.760Z,67.17
2017-10-18T03:57:07.217Z,67.17
2017-10-18T03:57:47.674Z,66.88
2017-10-18T03:58:28.140Z,66.88
2017-10-18T03:59:08.567Z,66.49
2017-10-18T03:59:49.014Z,66.4
2017-10-18T04:00:29.464Z,66.49
2017-10-18T04:01:09.915Z,65.91
2017-10-18T04:01:50.718Z,65.72
2017-10-18T04:02:31.181Z,65.82
2017-10-18T04:03:11.631Z,65.91
2017-10-18T04:03:52.095Z,65.53
2017-10-18T04:04:32.551Z,65.53
2017-10-18T04:05:12.998Z,65.34
2017-10-18T04:05:53.467Z,65.53
2017-10-18T04:06:33.913Z,65.05
2017-10-18T04:07:14.358Z,65.14
2017-10-18T04:07:54.806Z,65.43
2017-10-18T04:08:35.266Z,65.63
2017-10-18T04:09:15.731Z,64.95
2017-10-18T04:09:56.189Z,64.76
2017-10-18T04:10:36.646Z,64.76
2017-10-18T04:11:17.098Z,64.56
2017-10-18T04:11:57.545Z,64.66
2017-10-18T04:12:38.006Z,64.47
2017-10-18T04:13:18.460Z,64.86
2017-10-18T04:13:58.955Z,64.76
2017-10-18T04:14:39.400Z,64.56
2017-10-18T04:15:19.851Z,64.56
2017-10-18T04:16:00.300Z,64.76
2017-10-18T04:16:40.755Z,64.76
2017-10-18T04:17:21.204Z,64.56
2017-10-18T04:18:01.659Z,64.47
2017-10-18T04:18:42.108Z,64.37
2017-10-18T04:19:22.571Z,64.56
2017-10-18T04:20:03.019Z,63.98
2017-10-18T04:20:43.481Z,64.18
2017-10-18T04:21:23.937Z,64.37
2017-10-18T04:22:04.413Z,64.37
2017-10-18T04:22:44.856Z,63.98
2017-10-18T04:23:25.318Z,63.79
2017-10-18T04:24:05.757Z,64.37
2017-10-18T04:24:46.215Z,64.37
2017-10-18T04:25:26.664Z,64.37
2017-10-18T04:26:07.136Z,64.01
2017-10-18T04:26:47.600Z,64.08
2017-10-18T04:27:28.058Z,64.11
2017-10-18T04:28:08.500Z,63.98
2017-10-18T04:28:48.954Z,63.79
2017-10-18T04:29:29.406Z,63.7
2017-10-18T04:30:09.862Z,63.73
2017-10-18T04:30:50.327Z,63.7
2017-10-18T04:31:30.772Z,63.43
2017-10-18T04:32:11.239Z,63.34
2017-10-18T04:32:51.696Z,63.89
2017-10-18T04:33:32.145Z,63.4
2017-10-18T04:34:12.611Z,63.43
2017-10-18T04:34:53.067Z,63.7
2017-10-18T04:35:33.556Z,63.73
2017-10-18T04:36:13.996Z,63.5
2017-10-18T04:36:54.456Z,63.92
2017-10-18T04:37:34.918Z,63.34
2017-10-18T04:38:15.374Z,64.01
2017-10-18T04:38:55.832Z,63.43
2017-10-18T04:39:36.281Z,63.82
2017-10-18T04:40:16.722Z,63.73
2017-10-18T04:40:57.172Z,63.73
2017-10-18T04:41:37.627Z,63.73
2017-10-18T04:42:18.082Z,63.53
2017-10-18T04:42:58.539Z,63.73
2017-10-18T04:43:39.003Z,64.01
2017-10-18T04:44:19.470Z,63.92
2017-10-18T04:44:59.930Z,63.73
2017-10-18T04:45:40.374Z,63.82
2017-10-18T04:46:20.832Z,63.82
2017-10-18T04:47:01.300Z,63.82
2017-10-18T04:47:41.756Z,63.73
2017-10-18T04:48:22.213Z,63.53
2017-10-18T04:49:02.652Z,63.43
2017-10-18T04:49:43.114Z,63.43
2017-10-18T04:50:23.570Z,63.43
2017-10-18T04:51:04.021Z,63.43
2017-10-18T04:51:44.468Z,63.63
2017-10-18T04:52:24.923Z,63.63
2017-10-18T04:53:05.371Z,63.43
2017-10-18T04:53:45.834Z,63.63
2017-10-18T04:54:26.303Z,63.43
2017-10-18T04:55:06.755Z,63.34
2017-10-18T04:55:47.218Z,63.34
2017-10-18T04:56:27.663Z,63.53
2017-10-18T04:57:08.110Z,63.63
2017-10-18T04:57:48.570Z,63.34
2017-10-18T04:58:29.008Z,63.53
2017-10-18T04:59:09.455Z,63.53
2017-10-18T04:59:49.904Z,63.63
2017-10-18T05:00:30.347Z,63.43
2017-10-18T05:01:10.813Z,63.43
2017-10-18T05:01:51.263Z,63.43
2017-10-18T05:02:31.730Z,63.43
2017-10-18T05:03:12.186Z,63.53
2017-10-18T05:03:52.640Z,63.43
2017-10-18T05:04:33.106Z,63.4
2017-10-18T05:05:13.553Z,63.53
2017-10-18T05:05:54.004Z,63.63
2017-10-18T05:06:34.454Z,63.43
2017-10-18T05:07:14.907Z,63.63
2017-10-18T05:07:55.377Z,63.63
2017-10-18T05:08:35.831Z,63.43
2017-10-18T05:09:16.288Z,63.73
2017-10-18T05:09:56.737Z,63.63
2017-10-18T05:10:37.193Z,63.31
2017-10-18T05:11:17.632Z,63.4
2017-10-18T05:11:58.072Z,63.43
2017-10-18T05:12:38.528Z,63.43
2017-10-18T05:13:18.987Z,63.73
2017-10-18T05:13:59.427Z,63.63
2017-10-18T05:14:39.882Z,63.63
2017-10-18T05:15:20.327Z,63.73
2017-10-18T05:16:00.780Z,63.73
2017-10-18T05:16:41.244Z,64.01
2017-10-18T05:17:21.703Z,63.7
2017-10-18T05:18:02.159Z,63.79
2017-10-18T05:18:42.618Z,63.82
2017-10-18T05:19:23.070Z,63.82
2017-10-18T05:20:03.524Z,63.79
2017-10-18T05:20:43.967Z,64.01
2017-10-18T05:21:24.423Z,63.79
2017-10-18T05:22:04.873Z,63.89
2017-10-18T05:22:45.327Z,63.5
2017-10-18T05:23:25.778Z,63.6
2017-10-18T05:24:06.233Z,63.79
2017-10-18T05:24:46.701Z,63.82
2017-10-18T05:25:27.142Z,63.79
2017-10-18T05:26:07.595Z,63.82
2017-10-18T05:26:48.048Z,63.98
2017-10-18T05:27:28.507Z,64.01
2017-10-18T05:28:08.954Z,63.79
2017-10-18T05:28:49.404Z,63.4
2017-10-18T05:29:29.862Z,63.6
2017-10-18T05:30:10.310Z,63.79
2017-10-18T05:30:50.789Z,63.79
2017-10-18T05:31:31.241Z,63.31
2017-10-18T05:32:11.695Z,63.6
2017-10-18T05:32:52.152Z,63.5
2017-10-18T05:33:32.615Z,63.6
2017-10-18T05:34:13.052Z,63.6
2017-10-18T05:34:53.503Z,63.5
2017-10-18T05:35:33.946Z,63.4
2017-10-18T05:36:14.390Z,63.4
2017-10-18T05:36:54.861Z,63.4
2017-10-18T05:37:35.311Z,63.5
2017-10-18T05:38:15.767Z,63.4
2017-10-18T05:38:56.216Z,63.89
2017-10-18T05:39:36.681Z,63.4
2017-10-18T05:40:17.149Z,63.31
2017-10-18T05:40:57.600Z,63.4
2017-10-18T05:41:38.050Z,63.4
2017-10-18T05:42:18.510Z,63.4
2017-10-18T05:42:58.971Z,63.4
2017-10-18T05:43:39.425Z,63.5
2017-10-18T05:44:19.886Z,63.31
2017-10-18T05:45:00.325Z,63.5
2017-10-18T05:45:40.776Z,63.5
2017-10-18T05:46:21.228Z,63.4
2017-10-18T05:47:01.685Z,63.4
2017-10-18T05:47:42.121Z,63.31
2017-10-18T05:48:22.568Z,63.21
2017-10-18T05:49:03.030Z,63.89
2017-10-18T05:49:43.482Z,63.5
2017-10-18T05:50:23.932Z,63.89
2017-10-18T05:51:04.392Z,63.7
2017-10-18T05:51:44.857Z,63.7
2017-10-18T05:52:25.327Z,63.79
2017-10-18T05:53:05.764Z,63.7
2017-10-18T05:53:46.216Z,63.79
2017-10-18T05:54:26.677Z,63.98
2017-10-18T05:55:07.126Z,63.89
2017-10-18T05:55:47.580Z,63.89
2017-10-18T05:56:28.031Z,63.79
2017-10-18T05:57:08.483Z,64.18
2017-10-18T05:57:48.941Z,63.98
2017-10-18T05:58:29.403Z,63.5
2017-10-18T05:59:09.860Z,63.89
2017-10-18T05:59:50.309Z,63.89
2017-10-18T06:00:30.758Z,63.98
2017-10-18T06:01:11.216Z,63.98
2017-10-18T06:01:51.661Z,63.98
2017-10-18T06:02:32.112Z,64.08
2017-10-18T06:03:12.565Z,63.89
2017-10-18T06:03:53.022Z,63.98
2017-10-18T06:04:33.472Z,64.08
2017-10-18T06:05:13.939Z,63.98
2017-10-18T06:05:54.395Z,64.08
2017-10-18T06:06:34.850Z,63.98
2017-10-18T06:07:15.314Z,63.98
2017-10-18T06:07:55.765Z,63.98
2017-10-18T06:08:36.214Z,63.98
2017-10-18T06:09:16.669Z,63.98
2017-10-18T06:09:57.127Z,64.08
2017-10-18T06:10:37.590Z,63.98
2017-10-18T06:11:18.033Z,64.08
2017-10-18T06:11:58.483Z,64.08
2017-10-18T06:12:38.937Z,64.08
2017-10-18T06:13:19.395Z,63.98
2017-10-18T06:13:59.847Z,63.98
2017-10-18T06:14:40.293Z,63.98
2017-10-18T06:15:20.744Z,63.98
2017-10-18T06:16:01.199Z,64.08
2017-10-18T06:16:41.664Z,63.98
2017-10-18T06:17:22.116Z,64.08
2017-10-18T06:18:02.569Z,63.89
2017-10-18T06:18:43.023Z,64.08
2017-10-18T06:19:23.485Z,64.08
2017-10-18T06:20:03.953Z,63.98
2017-10-18T06:20:44.404Z,64.18
2017-10-18T06:21:24.859Z,63.98
2017-10-18T06:22:05.305Z,63.98
2017-10-18T06:22:45.760Z,63.98
2017-10-18T06:23:26.218Z,63.98
2017-10-18T06:24:06.672Z,63.98
2017-10-18T06:24:47.138Z,63.98
2017-10-18T06:25:27.596Z,63.98
2017-10-18T06:26:08.040Z,63.89
2017-10-18T06:26:48.502Z,63.89
2017-10-18T06:27:28.947Z,63.98
2017-10-18T06:28:09.397Z,63.98
2017-10-18T06:28:49.854Z,63.98
2017-10-18T06:29:30.321Z,63.79
2017-10-18T06:30:10.769Z,63.98
2017-10-18T06:30:51.232Z,63.98
2017-10-18T06:31:31.690Z,63.6
2017-10-18T06:32:12.143Z,63.98
2017-10-18T06:32:52.594Z,63.98
2017-10-18T06:33:33.040Z,63.89
2017-10-18T06:34:13.482Z,63.89
2017-10-18T06:34:53.937Z,63.98
2017-10-18T06:35:34.396Z,63.98
2017-10-18T06:36:14.848Z,63.98
2017-10-18T06:36:55.311Z,63.79
2017-10-18T06:37:35.774Z,64.08
2017-10-18T06:38:16.228Z,63.7
2017-10-18T06:38:56.682Z,63.89
2017-10-18T06:39:37.147Z,63.98
2017-10-18T06:40:17.582Z,63.79
2017-10-18T06:40:58.028Z,63.7
2017-10-18T06:41:38.483Z,63.79
2017-10-18T06:42:18.949Z,63.31
2017-10-18T06:42:59.407Z,63.7
2017-10-18T06:43:39.869Z,63.24
2017-10-18T06:44:20.327Z,63.4
2017-10-18T06:45:00.777Z,63.4
2017-10-18T06:45:41.220Z,63.4
2017-10-18T06:46:21.678Z,63.4
2017-10-18T06:47:02.132Z,63.4
2017-10-18T06:47:42.590Z,63.6
2017-10-18T06:48:23.052Z,63.31
2017-10-18T06:49:03.502Z,63.89
2017-10-18T06:49:43.955Z,63.31
2017-10-18T06:50:24.405Z,63.43
2017-10-18T06:51:04.856Z,63.43
2017-10-18T06:51:45.303Z,63.53
2017-10-18T06:52:25.769Z,63.63
2017-10-18T06:53:06.208Z,63.73
2017-10-18T06:53:46.641Z,63.73
2017-10-18T06:54:27.114Z,63.82
2017-10-18T06:55:07.564Z,63.82
2017-10-18T06:55:48.033Z,63.82
2017-10-18T06:56:28.509Z,64.11
2017-10-18T06:57:08.957Z,63.92
2017-10-18T06:57:49.413Z,64.01
2017-10-18T06:58:29.870Z,64.01
2017-10-18T06:59:10.329Z,64.01
2017-10-18T06:59:50.762Z,63.82
2017-10-18T07:00:31.214Z,63.92
2017-10-18T07:01:11.674Z,63.53
2017-10-18T07:01:52.138Z,63.82
2017-10-18T07:02:32.589Z,63.82
2017-10-18T07:03:13.045Z,63.73
2017-10-18T07:03:53.522Z,64.01
2017-10-18T07:04:33.974Z,64.01
2017-10-18T07:05:14.433Z,63.73
2017-10-18T07:05:54.888Z,63.43
2017-10-18T07:06:35.341Z,63.92
2017-10-18T07:07:15.794Z,63.53
2017-10-18T07:07:56.252Z,63.53
2017-10-18T07:08:36.703Z,63.43
2017-10-18T07:09:17.168Z,63.63
2017-10-18T07:09:57.611Z,63.05
2017-10-18T07:10:38.070Z,63.53
2017-10-18T07:11:18.518Z,62.98
2017-10-18T07:11:58.970Z,63.08
2017-10-18T07:12:39.417Z,63.08
2017-10-18T07:13:19.873Z,63.08
2017-10-18T07:14:00.327Z,62.79
2017-10-18T07:14:40.792Z,62.79
2017-10-18T07:15:21.250Z,62.89
2017-10-18T07:16:01.714Z,62.7
2017-10-18T07:16:42.173Z,62.21
2017-10-18T07:17:22.624Z,62.4
2017-10-18T07:18:03.099Z,62.05
2017-10-18T07:18:43.555Z,62.05
2017-10-18T07:19:24.025Z,62.05
2017-10-18T07:20:04.478Z,62.15
2017-10-18T07:20:44.921Z,62.34
2017-10-18T07:21:25.383Z,62.15
2017-10-18T07:22:05.833Z,62.24
2017-10-18T07:22:46.282Z,62.15
2017-10-18T07:23:26.724Z,61.76
2017-10-18T07:24:07.179Z,61.86
2017-10-18T07:24:47.626Z,61.76
2017-10-18T07:25:28.085Z,61.18
2017-10-18T07:26:08.591Z,61.27
2017-10-18T07:26:49.036Z,61.4
2017-10-18T07:27:29.482Z,61.79
2017-10-18T07:28:09.932Z,61.5
2017-10-18T07:28:50.381Z,61.5
2017-10-18T07:29:30.835Z,61.5
2017-10-18T07:30:11.283Z,61.6
2017-10-18T07:30:51.741Z,61.02
2017-10-18T07:31:32.201Z,61.21
2017-10-18T07:32:12.655Z,61.11
2017-10-18T07:32:53.103Z,60.82
2017-10-18T07:33:33.559Z,60.82
2017-10-18T07:34:14.020Z,60.82
2017-10-18T07:34:54.741Z,61.02
2017-10-18T07:35:35.365Z,60.92
2017-10-18T07:36:15.834Z,61.11
2017-10-18T07:36:56.285Z,61.11
2017-10-18T07:37:36.737Z,61.02
2017-10-18T07:38:17.199Z,60.92
2017-10-18T07:38:57.645Z,60.92
2017-10-18T07:39:38.100Z,61.11
2017-10-18T07:40:18.562Z,61.11
2017-10-18T07:40:59.020Z,61.21
2017-10-18T07:41:39.472Z,60.92
2017-10-18T07:42:19.928Z,61.02
2017-10-18T07:43:00.373Z,61.21
2017-10-18T07:43:40.827Z,60.82
2017-10-18T07:44:21.313Z,60.72
2017-10-18T07:45:01.769Z,60.85
2017-10-18T07:45:42.204Z,60.63
2017-10-18T07:46:22.684Z,60.47
2017-10-18T07:47:03.139Z,60.47
2017-10-18T07:47:43.595Z,60.85
2017-10-18T07:48:24.051Z,60.66
2017-10-18T07:49:04.502Z,60.66
2017-10-18T07:49:44.954Z,60.66
2017-10-18T07:50:25.430Z,60.66
2017-10-18T07:51:05.882Z,60.47
2017-10-18T07:51:46.346Z,60.75
2017-10-18T07:52:26.796Z,60.57
2017-10-18T07:53:07.251Z,60.66
2017-10-18T07:53:47.709Z,60.27
2017-10-18T07:54:28.165Z,60.37
2017-10-18T07:55:08.630Z,60.08
2017-10-18T07:55:49.090Z,60.47
2017-10-18T07:56:29.556Z,60.27
2017-10-18T07:57:10.010Z,59.89
2017-10-18T07:57:50.460Z,59.69
2017-10-18T07:58:30.931Z,59.72
2017-10-18T07:59:11.350Z,59.82
2017-10-18T07:59:51.792Z,59.82
2017-10-18T08:00:32.244Z,59.82
2017-10-18T08:01:12.695Z,59.91
2017-10-18T08:01:53.143Z,60.01
2017-10-18T08:02:33.595Z,60.01
2017-10-18T08:03:14.053Z,59.63
2017-10-18T08:03:54.511Z,59.72
2017-10-18T08:04:34.965Z,59.82
2017-10-18T08:05:15.422Z,59.72
2017-10-18T08:05:55.885Z,59.82
2017-10-18T08:06:36.352Z,59.72
2017-10-18T08:07:16.801Z,59.63
2017-10-18T08:07:57.293Z,59.53
2017-10-18T08:08:37.761Z,59.72
2017-10-18T08:09:18.216Z,59.53
2017-10-18T08:09:58.694Z,59.33
2017-10-18T08:10:39.134Z,59.72
2017-10-18T08:11:19.612Z,59.72
2017-10-18T08:12:00.070Z,59.53
2017-10-18T08:12:40.532Z,59.33
2017-10-18T08:13:20.978Z,59.17
2017-10-18T08:14:01.440Z,59.46
2017-10-18T08:14:41.919Z,59.23
2017-10-18T08:15:22.376Z,59.17
2017-10-18T08:16:02.960Z,59.43
2017-10-18T08:16:43.322Z,59.17
2017-10-18T08:17:23.762Z,59.27
2017-10-18T08:18:04.239Z,59.36
2017-10-18T08:18:44.705Z,59.17
2017-10-18T08:19:25.164Z,59.46
2017-10-18T08:20:05.619Z,58.69
2017-10-18T08:20:46.073Z,58.49
2017-10-18T08:21:26.530Z,58.59
2017-10-18T08:22:06.976Z,58.59
2017-10-18T08:22:47.435Z,58.69
2017-10-18T08:23:27.894Z,58.98
2017-10-18T08:24:08.359Z,58.3
2017-10-18T08:24:48.819Z,58.39
2017-10-18T08:25:29.273Z,58.3
2017-10-18T08:26:09.721Z,58.62
2017-10-18T08:26:50.179Z,58.23
2017-10-18T08:27:30.632Z,58.14
2017-10-18T08:28:11.088Z,58.14
2017-10-18T08:28:51.548Z,58.23
2017-10-18T08:29:32.008Z,57.94
2017-10-18T08:30:12.472Z,57.84
2017-10-18T08:30:52.937Z,57.94
2017-10-18T08:31:33.394Z,58.23
2017-10-18T08:32:13.852Z,57.65
2017-10-18T08:32:54.308Z,58.06
2017-10-18T08:33:34.755Z,58.14
2017-10-18T08:34:15.219Z,57.65
2017-10-18T08:34:55.672Z,57.78
2017-10-18T08:35:36.122Z,57.58
2017-10-18T08:36:16.568Z,57.48
2017-10-18T08:36:57.025Z,57.68
2017-10-18T08:37:37.475Z,57.75
2017-10-18T08:38:17.932Z,57.94
2017-10-18T08:38:58.588Z,57.78
2017-10-18T08:39:39.034Z,57.78
2017-10-18T08:40:19.504Z,57.58
2017-10-18T08:41:00.096Z,57.45
2017-10-18T08:41:40.549Z,57.48
2017-10-18T08:42:21.055Z,57.48